sensor_id;sensor_type;location;lat;lon;timestamp;pressure;altitude;pressure_sealevel;temperature;humidity
30421;BME280;17218;54.070;10.012;2023-05-22T00:01:34;101598.22;;;18.50;100.00
30421;BME280;17218;54.070;10.012;2023-05-22T00:04:03;101594.75;;;18.47;100.00
30421;BME280;17218;54.070;10.012;2023-05-22T00:06:30;101592.22;;;18.44;100.00
30421;BME280;17218;54.070;10.012;2023-05-22T00:08:58;101589.66;;;18.43;100.00
30421;BME280;17218;54.070;10.012;2023-05-22T00:11:25;101583.13;;;18.58;100.00
30421;BME280;17218;54.070;10.012;2023-05-22T00:13:51;101589.59;;;18.44;100.00
30421;BME280;17218;54.070;10.012;2023-05-22T00:16:18;101588.94;;;18.38;100.00
30421;BME280;17218;54.070;10.012;2023-05-22T00:18:45;101582.91;;;18.34;100.00
30421;BME280;17218;54.070;10.012;2023-05-22T00:21:12;101587.31;;;18.32;100.00
30421;BME280;17218;54.070;10.012;2023-05-22T00:23:41;101583.97;;;18.27;100.00
30421;BME280;17218;54.070;10.012;2023-05-22T00:26:07;101593.69;;;18.23;100.00
30421;BME280;17218;54.070;10.012;2023-05-22T00:28:34;101583.28;;;18.18;100.00
30421;BME280;17218;54.070;10.012;2023-05-22T00:31:00;101586.75;;;18.20;100.00
30421;BME280;17218;54.070;10.012;2023-05-22T00:33:27;101587.59;;;18.21;100.00
30421;BME280;17218;54.070;10.012;2023-05-22T00:35:53;101583.38;;;18.15;100.00
30421;BME280;17218;54.070;10.012;2023-05-22T00:38:29;101583.50;;;18.09;100.00
30421;BME280;17218;54.070;10.012;2023-05-22T00:40:56;101580.13;;;18.04;100.00
30421;BME280;17218;54.070;10.012;2023-05-22T00:43:23;101578.47;;;17.99;100.00
30421;BME280;17218;54.070;10.012;2023-05-22T00:45:49;101573.31;;;17.96;100.00
30421;BME280;17218;54.070;10.012;2023-05-22T00:48:16;101571.84;;;17.86;100.00
30421;BME280;17218;54.070;10.012;2023-05-22T00:50:43;101578.78;;;17.87;100.00
30421;BME280;17218;54.070;10.012;2023-05-22T00:53:09;101580.50;;;17.90;100.00
30421;BME280;17218;54.070;10.012;2023-05-22T00:55:38;101572.22;;;17.70;100.00
30421;BME280;17218;54.070;10.012;2023-05-22T00:58:05;101570.53;;;17.68;100.00
30421;BME280;17218;54.070;10.012;2023-05-22T01:00:33;101571.13;;;17.79;100.00
30421;BME280;17218;54.070;10.012;2023-05-22T01:03:01;101573.47;;;17.92;100.00
30421;BME280;17218;54.070;10.012;2023-05-22T01:05:28;101573.91;;;17.73;100.00
30421;BME280;17218;54.070;10.012;2023-05-22T01:07:54;101568.75;;;17.68;100.00
30421;BME280;17218;54.070;10.012;2023-05-22T01:10:22;101568.88;;;17.63;100.00
30421;BME280;17218;54.070;10.012;2023-05-22T01:12:56;101569.72;;;17.66;100.00
30421;BME280;17218;54.070;10.012;2023-05-22T01:15:31;101566.22;;;17.65;100.00
30421;BME280;17218;54.070;10.012;2023-05-22T01:18:06;101563.69;;;17.62;100.00
30421;BME280;17218;54.070;10.012;2023-05-22T01:20:39;101561.06;;;17.62;100.00
30421;BME280;17218;54.070;10.012;2023-05-22T01:23:34;101565.88;;;17.43;100.00
30421;BME280;17218;54.070;10.012;2023-05-22T01:26:19;101559.91;;;17.36;100.00
30421;BME280;17218;54.070;10.012;2023-05-22T01:29:09;101555.59;;;17.33;100.00
30421;BME280;17218;54.070;10.012;2023-05-22T01:31:40;101564.78;;;17.13;100.00
30421;BME280;17218;54.070;10.012;2023-05-22T01:34:10;101563.06;;;17.09;100.00
30421;BME280;17218;54.070;10.012;2023-05-22T01:36:37;101555.28;;;17.06;100.00
30421;BME280;17218;54.070;10.012;2023-05-22T01:39:05;101562.66;;;17.29;100.00
30421;BME280;17218;54.070;10.012;2023-05-22T01:41:32;101560.13;;;17.26;100.00
30421;BME280;17218;54.070;10.012;2023-05-22T01:43:59;101559.56;;;17.12;100.00
30421;BME280;17218;54.070;10.012;2023-05-22T01:46:26;101560.44;;;17.12;100.00
30421;BME280;17218;54.070;10.012;2023-05-22T01:48:54;101558.66;;;17.13;100.00
30421;BME280;17218;54.070;10.012;2023-05-22T01:51:32;101557.03;;;17.05;100.00
30421;BME280;17218;54.070;10.012;2023-05-22T01:54:03;101551.94;;;17.01;100.00
30421;BME280;17218;54.070;10.012;2023-05-22T01:56:37;101552.75;;;17.01;100.00
30421;BME280;17218;54.070;10.012;2023-05-22T01:59:09;101548.56;;;16.96;100.00
30421;BME280;17218;54.070;10.012;2023-05-22T02:01:40;101548.59;;;16.92;100.00
30421;BME280;17218;54.070;10.012;2023-05-22T02:04:09;101558.19;;;16.93;100.00
30421;BME280;17218;54.070;10.012;2023-05-22T02:06:36;101546.91;;;16.90;100.00
30421;BME280;17218;54.070;10.012;2023-05-22T02:09:04;101541.69;;;16.88;100.00
30421;BME280;17218;54.070;10.012;2023-05-22T02:11:33;101545.59;;;16.68;100.00
30421;BME280;17218;54.070;10.012;2023-05-22T02:14:01;101541.25;;;16.67;100.00
30421;BME280;17218;54.070;10.012;2023-05-22T02:16:28;101544.75;;;16.68;100.00
30421;BME280;17218;54.070;10.012;2023-05-22T02:18:58;101540.50;;;16.62;100.00
30421;BME280;17218;54.070;10.012;2023-05-22T02:21:28;101538.03;;;16.54;100.00
30421;BME280;17218;54.070;10.012;2023-05-22T02:23:55;101539.13;;;16.42;100.00
30421;BME280;17218;54.070;10.012;2023-05-22T02:26:21;101535.81;;;16.34;100.00
30421;BME280;17218;54.070;10.012;2023-05-22T02:28:48;101531.81;;;16.60;100.00
30421;BME280;17218;54.070;10.012;2023-05-22T02:31:14;101528.59;;;16.47;100.00
30421;BME280;17218;54.070;10.012;2023-05-22T02:33:42;101535.06;;;16.27;100.00
30421;BME280;17218;54.070;10.012;2023-05-22T02:36:09;101532.59;;;16.19;100.00
30421;BME280;17218;54.070;10.012;2023-05-22T02:38:38;101524.88;;;16.12;100.00
30421;BME280;17218;54.070;10.012;2023-05-22T02:41:07;101524.09;;;16.06;100.00
30421;BME280;17218;54.070;10.012;2023-05-22T02:43:33;101519.75;;;16.05;100.00
30421;BME280;17218;54.070;10.012;2023-05-22T02:46:00;101510.09;;;16.09;100.00
30421;BME280;17218;54.070;10.012;2023-05-22T02:48:26;101511.09;;;16.02;100.00
30421;BME280;17218;54.070;10.012;2023-05-22T02:50:53;101511.91;;;16.07;100.00
30421;BME280;17218;54.070;10.012;2023-05-22T02:53:20;101506.66;;;16.08;100.00
30421;BME280;17218;54.070;10.012;2023-05-22T02:55:48;101506.81;;;15.97;100.00
30421;BME280;17218;54.070;10.012;2023-05-22T02:58:14;101509.66;;;15.83;100.00
30421;BME280;17218;54.070;10.012;2023-05-22T03:00:42;101508.81;;;15.81;100.00
30421;BME280;17218;54.070;10.012;2023-05-22T03:03:08;101506.34;;;15.72;100.00
30421;BME280;17218;54.070;10.012;2023-05-22T03:05:35;101505.56;;;15.67;100.00
30421;BME280;17218;54.070;10.012;2023-05-22T03:08:02;101502.91;;;15.71;100.00
30421;BME280;17218;54.070;10.012;2023-05-22T03:10:29;101508.34;;;15.56;100.00
30421;BME280;17218;54.070;10.012;2023-05-22T03:12:57;101506.00;;;15.40;100.00
30421;BME280;17218;54.070;10.012;2023-05-22T03:15:23;101504.19;;;15.45;100.00
30421;BME280;17218;54.070;10.012;2023-05-22T03:17:50;101507.63;;;15.47;100.00
30421;BME280;17218;54.070;10.012;2023-05-22T03:20:16;101498.84;;;15.53;100.00
30421;BME280;17218;54.070;10.012;2023-05-22T03:22:43;101499.63;;;15.58;100.00
30421;BME280;17218;54.070;10.012;2023-05-22T03:31:55;101503.75;;;15.73;100.00
30421;BME280;17218;54.070;10.012;2023-05-22T03:34:22;101509.06;;;15.67;100.00
30421;BME280;17218;54.070;10.012;2023-05-22T03:36:51;101504.94;;;15.52;100.00
30421;BME280;17218;54.070;10.012;2023-05-22T03:39:18;101499.78;;;15.49;100.00
30421;BME280;17218;54.070;10.012;2023-05-22T03:41:44;101504.13;;;15.48;100.00
30421;BME280;17218;54.070;10.012;2023-05-22T03:44:11;101511.22;;;15.40;100.00
30421;BME280;17218;54.070;10.012;2023-05-22T03:46:37;101505.00;;;15.49;100.00
30421;BME280;17218;54.070;10.012;2023-05-22T03:49:05;101502.34;;;15.50;100.00
30421;BME280;17218;54.070;10.012;2023-05-22T03:51:31;101501.72;;;15.36;100.00
30421;BME280;17218;54.070;10.012;2023-05-22T03:53:58;101495.72;;;15.27;100.00
30421;BME280;17218;54.070;10.012;2023-05-22T03:56:25;101500.72;;;15.43;100.00
30421;BME280;17218;54.070;10.012;2023-05-22T03:58:51;101501.50;;;15.48;100.00
30421;BME280;17218;54.070;10.012;2023-05-22T04:01:18;101497.13;;;15.50;100.00
30421;BME280;17218;54.070;10.012;2023-05-22T04:03:44;101505.75;;;15.56;100.00
30421;BME280;17218;54.070;10.012;2023-05-22T04:06:13;101494.44;;;15.57;100.00
30421;BME280;17218;54.070;10.012;2023-05-22T04:08:39;101501.44;;;15.55;100.00
30421;BME280;17218;54.070;10.012;2023-05-22T04:11:05;101493.75;;;15.44;100.00
30421;BME280;17218;54.070;10.012;2023-05-22T04:13:32;101495.56;;;15.40;100.00
30421;BME280;17218;54.070;10.012;2023-05-22T04:15:59;101498.13;;;15.43;100.00
30421;BME280;17218;54.070;10.012;2023-05-22T04:18:26;101488.44;;;15.50;100.00
30421;BME280;17218;54.070;10.012;2023-05-22T04:20:52;101487.44;;;15.57;100.00
30421;BME280;17218;54.070;10.012;2023-05-22T04:23:20;101484.00;;;15.54;100.00
30421;BME280;17218;54.070;10.012;2023-05-22T04:25:47;101484.75;;;15.64;100.00
30421;BME280;17218;54.070;10.012;2023-05-22T04:28:13;101488.88;;;15.76;100.00
30421;BME280;17218;54.070;10.012;2023-05-22T04:30:41;101487.91;;;15.83;100.00
30421;BME280;17218;54.070;10.012;2023-05-22T04:33:08;101481.88;;;15.78;100.00
30421;BME280;17218;54.070;10.012;2023-05-22T04:35:34;101475.66;;;15.86;100.00
30421;BME280;17218;54.070;10.012;2023-05-22T04:38:01;101476.25;;;16.00;100.00
30421;BME280;17218;54.070;10.012;2023-05-22T04:40:29;101480.59;;;16.04;100.00
30421;BME280;17218;54.070;10.012;2023-05-22T04:42:57;101483.16;;;16.07;100.00
30421;BME280;17218;54.070;10.012;2023-05-22T04:45:25;101476.91;;;16.16;100.00
30421;BME280;17218;54.070;10.012;2023-05-22T04:47:52;101478.56;;;16.18;100.00
30421;BME280;17218;54.070;10.012;2023-05-22T04:50:20;101482.78;;;16.27;100.00
30421;BME280;17218;54.070;10.012;2023-05-22T04:52:47;101482.59;;;16.35;100.00
30421;BME280;17218;54.070;10.012;2023-05-22T04:55:14;101480.16;;;16.27;100.00
30421;BME280;17218;54.070;10.012;2023-05-22T04:57:42;101485.38;;;16.29;100.00
30421;BME280;17218;54.070;10.012;2023-05-22T05:00:10;101481.94;;;16.25;100.00
30421;BME280;17218;54.070;10.012;2023-05-22T05:02:38;101479.34;;;16.24;100.00
30421;BME280;17218;54.070;10.012;2023-05-22T05:05:05;101480.22;;;16.24;100.00
30421;BME280;17218;54.070;10.012;2023-05-22T05:07:35;101478.16;;;16.40;100.00
30421;BME280;17218;54.070;10.012;2023-05-22T05:10:02;101483.22;;;16.48;100.00
30421;BME280;17218;54.070;10.012;2023-05-22T05:12:29;101481.47;;;16.49;100.00
30421;BME280;17218;54.070;10.012;2023-05-22T05:14:56;101482.53;;;16.40;100.00
30421;BME280;17218;54.070;10.012;2023-05-22T05:17:23;101484.13;;;16.47;100.00
30421;BME280;17218;54.070;10.012;2023-05-22T05:19:49;101479.69;;;16.51;100.00
30421;BME280;17218;54.070;10.012;2023-05-22T05:22:16;101485.81;;;16.50;100.00
30421;BME280;17218;54.070;10.012;2023-05-22T05:24:42;101471.06;;;16.47;100.00
30421;BME280;17218;54.070;10.012;2023-05-22T05:27:09;101481.16;;;16.64;100.00
30421;BME280;17218;54.070;10.012;2023-05-22T05:29:35;101477.47;;;16.75;100.00
30421;BME280;17218;54.070;10.012;2023-05-22T05:32:04;101489.34;;;16.88;100.00
30421;BME280;17218;54.070;10.012;2023-05-22T05:34:30;101482.34;;;16.92;100.00
30421;BME280;17218;54.070;10.012;2023-05-22T05:36:57;101481.06;;;17.10;100.00
30421;BME280;17218;54.070;10.012;2023-05-22T05:39:23;101484.50;;;17.14;100.00
30421;BME280;17218;54.070;10.012;2023-05-22T05:41:50;101478.25;;;17.18;100.00
30421;BME280;17218;54.070;10.012;2023-05-22T05:44:16;101479.97;;;17.21;100.00
30421;BME280;17218;54.070;10.012;2023-05-22T05:46:42;101472.72;;;17.32;100.00
30421;BME280;17218;54.070;10.012;2023-05-22T05:49:10;101474.25;;;17.41;100.00
30421;BME280;17218;54.070;10.012;2023-05-22T05:51:37;101474.44;;;17.33;100.00
30421;BME280;17218;54.070;10.012;2023-05-22T05:54:04;101471.06;;;17.28;100.00
30421;BME280;17218;54.070;10.012;2023-05-22T05:56:30;101472.38;;;17.46;100.00
30421;BME280;17218;54.070;10.012;2023-05-22T05:58:57;101473.38;;;17.40;100.00
30421;BME280;17218;54.070;10.012;2023-05-22T06:01:24;101465.25;;;17.53;100.00
30421;BME280;17218;54.070;10.012;2023-05-22T06:03:51;101461.09;;;17.77;100.00
30421;BME280;17218;54.070;10.012;2023-05-22T06:06:19;101466.09;;;17.87;100.00
30421;BME280;17218;54.070;10.012;2023-05-22T06:08:45;101456.94;;;18.04;100.00
30421;BME280;17218;54.070;10.012;2023-05-22T06:11:12;101463.97;;;18.35;100.00
30421;BME280;17218;54.070;10.012;2023-05-22T06:13:38;101458.34;;;18.49;100.00
30421;BME280;17218;54.070;10.012;2023-05-22T06:16:05;101464.16;;;18.59;100.00
30421;BME280;17218;54.070;10.012;2023-05-22T06:18:32;101456.56;;;18.80;100.00
30421;BME280;17218;54.070;10.012;2023-05-22T06:20:58;101452.88;;;18.86;100.00
30421;BME280;17218;54.070;10.012;2023-05-22T06:23:26;101461.53;;;18.89;100.00
30421;BME280;17218;54.070;10.012;2023-05-22T06:25:53;101452.44;;;19.00;100.00
30421;BME280;17218;54.070;10.012;2023-05-22T06:28:19;101455.06;;;19.28;100.00
30421;BME280;17218;54.070;10.012;2023-05-22T06:30:46;101446.91;;;19.09;100.00
30421;BME280;17218;54.070;10.012;2023-05-22T06:33:12;101449.25;;;19.18;100.00
30421;BME280;17218;54.070;10.012;2023-05-22T06:35:39;101454.44;;;19.20;100.00
30421;BME280;17218;54.070;10.012;2023-05-22T06:38:06;101456.47;;;19.39;100.00
30421;BME280;17218;54.070;10.012;2023-05-22T06:40:33;101446.41;;;19.52;100.00
30421;BME280;17218;54.070;10.012;2023-05-22T06:43:00;101454.13;;;19.57;100.00
30421;BME280;17218;54.070;10.012;2023-05-22T06:45:26;101448.63;;;19.64;100.00
30421;BME280;17218;54.070;10.012;2023-05-22T06:47:53;101447.38;;;19.49;100.00
30421;BME280;17218;54.070;10.012;2023-05-22T06:50:20;101453.94;;;19.63;100.00
30421;BME280;17218;54.070;10.012;2023-05-22T06:52:47;101454.31;;;19.77;100.00
30421;BME280;17218;54.070;10.012;2023-05-22T06:55:14;101457.03;;;20.00;100.00
30421;BME280;17218;54.070;10.012;2023-05-22T06:57:42;101451.91;;;20.22;100.00
30421;BME280;17218;54.070;10.012;2023-05-22T07:00:09;101452.25;;;20.37;100.00
30421;BME280;17218;54.070;10.012;2023-05-22T07:02:36;101454.81;;;20.38;100.00
30421;BME280;17218;54.070;10.012;2023-05-22T07:05:04;101457.56;;;20.35;100.00
30421;BME280;17218;54.070;10.012;2023-05-22T07:07:30;101454.41;;;20.49;100.00
30421;BME280;17218;54.070;10.012;2023-05-22T07:09:57;101453.56;;;20.71;100.00
30421;BME280;17218;54.070;10.012;2023-05-22T07:12:23;101459.16;;;20.64;100.00
30421;BME280;17218;54.070;10.012;2023-05-22T07:14:52;101460.19;;;20.59;100.00
30421;BME280;17218;54.070;10.012;2023-05-22T07:17:19;101461.81;;;20.62;100.00
30421;BME280;17218;54.070;10.012;2023-05-22T07:19:45;101460.06;;;20.85;100.00
30421;BME280;17218;54.070;10.012;2023-05-22T07:22:12;101452.66;;;20.96;100.00
30421;BME280;17218;54.070;10.012;2023-05-22T07:24:38;101464.03;;;20.97;100.00
30421;BME280;17218;54.070;10.012;2023-05-22T07:27:05;101459.72;;;20.94;100.00
30421;BME280;17218;54.070;10.012;2023-05-22T07:29:33;101455.94;;;21.02;100.00
30421;BME280;17218;54.070;10.012;2023-05-22T07:32:01;101459.50;;;21.01;100.00
30421;BME280;17218;54.070;10.012;2023-05-22T07:34:27;101458.94;;;21.15;100.00
30421;BME280;17218;54.070;10.012;2023-05-22T07:36:57;101457.53;;;21.28;100.00
30421;BME280;17218;54.070;10.012;2023-05-22T07:39:23;101456.22;;;21.39;100.00
30421;BME280;17218;54.070;10.012;2023-05-22T07:41:50;101452.00;;;21.55;100.00
30421;BME280;17218;54.070;10.012;2023-05-22T07:44:18;101456.81;;;21.66;100.00
30421;BME280;17218;54.070;10.012;2023-05-22T07:46:45;101449.31;;;21.78;100.00
30421;BME280;17218;54.070;10.012;2023-05-22T07:49:12;101451.06;;;21.77;100.00
30421;BME280;17218;54.070;10.012;2023-05-22T07:51:43;101449.28;;;21.99;100.00
30421;BME280;17218;54.070;10.012;2023-05-22T07:54:10;101449.84;;;21.86;100.00
30421;BME280;17218;54.070;10.012;2023-05-22T07:56:37;101446.94;;;21.92;100.00
30421;BME280;17218;54.070;10.012;2023-05-22T07:59:06;101442.47;;;22.14;100.00
30421;BME280;17218;54.070;10.012;2023-05-22T08:01:33;101443.28;;;22.35;100.00
30421;BME280;17218;54.070;10.012;2023-05-22T08:04:01;101441.72;;;22.50;100.00
30421;BME280;17218;54.070;10.012;2023-05-22T08:06:29;101448.06;;;22.66;100.00
30421;BME280;17218;54.070;10.012;2023-05-22T08:08:56;101442.97;;;22.42;100.00
30421;BME280;17218;54.070;10.012;2023-05-22T08:11:24;101445.06;;;22.54;100.00
30421;BME280;17218;54.070;10.012;2023-05-22T08:13:50;101441.78;;;22.68;100.00
30421;BME280;17218;54.070;10.012;2023-05-22T08:16:17;101443.81;;;22.63;100.00
30421;BME280;17218;54.070;10.012;2023-05-22T08:18:43;101440.81;;;22.71;100.00
30421;BME280;17218;54.070;10.012;2023-05-22T08:21:10;101438.03;;;22.92;100.00
30421;BME280;17218;54.070;10.012;2023-05-22T08:23:38;101441.44;;;22.76;100.00
30421;BME280;17218;54.070;10.012;2023-05-22T08:26:05;101435.22;;;22.58;100.00
30421;BME280;17218;54.070;10.012;2023-05-22T08:28:32;101430.28;;;22.69;100.00
30421;BME280;17218;54.070;10.012;2023-05-22T08:30:59;101431.00;;;22.73;100.00
30421;BME280;17218;54.070;10.012;2023-05-22T08:33:25;101431.78;;;22.75;100.00
30421;BME280;17218;54.070;10.012;2023-05-22T08:35:52;101429.31;;;22.72;100.00
30421;BME280;17218;54.070;10.012;2023-05-22T08:38:18;101423.34;;;22.86;100.00
30421;BME280;17218;54.070;10.012;2023-05-22T08:40:47;101429.94;;;22.77;100.00
30421;BME280;17218;54.070;10.012;2023-05-22T08:43:14;101425.31;;;23.00;100.00
30421;BME280;17218;54.070;10.012;2023-05-22T08:45:41;101419.34;;;23.14;100.00
30421;BME280;17218;54.070;10.012;2023-05-22T08:48:11;101407.69;;;23.36;99.21
30421;BME280;17218;54.070;10.012;2023-05-22T08:50:41;101417.59;;;23.50;99.89
30421;BME280;17218;54.070;10.012;2023-05-22T08:53:10;101406.50;;;23.77;99.59
30421;BME280;17218;54.070;10.012;2023-05-22T08:55:37;101407.75;;;24.04;95.96
30421;BME280;17218;54.070;10.012;2023-05-22T08:58:07;101402.31;;;24.23;85.67
30421;BME280;17218;54.070;10.012;2023-05-22T09:00:35;101405.59;;;24.45;92.95
30421;BME280;17218;54.070;10.012;2023-05-22T09:03:03;101397.63;;;24.61;85.12
30421;BME280;17218;54.070;10.012;2023-05-22T09:05:30;101400.91;;;24.97;83.22
30421;BME280;17218;54.070;10.012;2023-05-22T09:07:58;101397.63;;;25.08;77.88
30421;BME280;17218;54.070;10.012;2023-05-22T09:10:25;101397.59;;;25.24;77.97
30421;BME280;17218;54.070;10.012;2023-05-22T09:13:07;101387.16;;;25.35;82.18
30421;BME280;17218;54.070;10.012;2023-05-22T09:15:34;101391.91;;;25.59;76.23
30421;BME280;17218;54.070;10.012;2023-05-22T09:18:02;101394.78;;;25.56;72.69
30421;BME280;17218;54.070;10.012;2023-05-22T09:20:33;101388.91;;;25.51;68.93
30421;BME280;17218;54.070;10.012;2023-05-22T09:22:59;101376.31;;;25.55;70.79
30421;BME280;17218;54.070;10.012;2023-05-22T09:25:26;101386.56;;;25.61;72.06
30421;BME280;17218;54.070;10.012;2023-05-22T09:27:53;101371.97;;;25.54;75.23
30421;BME280;17218;54.070;10.012;2023-05-22T09:30:21;101371.03;;;25.69;72.02
30421;BME280;17218;54.070;10.012;2023-05-22T09:32:48;101375.94;;;25.90;70.40
30421;BME280;17218;54.070;10.012;2023-05-22T09:35:15;101375.41;;;25.70;66.38
30421;BME280;17218;54.070;10.012;2023-05-22T09:37:41;101360.59;;;25.37;65.86
30421;BME280;17218;54.070;10.012;2023-05-22T09:40:10;101374.03;;;25.48;65.33
30421;BME280;17218;54.070;10.012;2023-05-22T09:42:38;101366.78;;;25.67;63.59
30421;BME280;17218;54.070;10.012;2023-05-22T09:45:08;101369.00;;;25.29;62.24
30421;BME280;17218;54.070;10.012;2023-05-22T09:47:37;101367.66;;;25.22;62.63
30421;BME280;17218;54.070;10.012;2023-05-22T09:50:05;101366.91;;;25.20;64.31
30421;BME280;17218;54.070;10.012;2023-05-22T09:52:35;101364.81;;;25.40;64.46
30421;BME280;17218;54.070;10.012;2023-05-22T09:55:03;101365.81;;;25.68;63.50
30421;BME280;17218;54.070;10.012;2023-05-22T09:57:32;101361.81;;;25.60;61.10
30421;BME280;17218;54.070;10.012;2023-05-22T10:00:02;101350.56;;;25.86;61.56
30421;BME280;17218;54.070;10.012;2023-05-22T10:02:36;101358.72;;;25.83;59.00
30421;BME280;17218;54.070;10.012;2023-05-22T10:05:05;101360.50;;;25.53;58.78
30421;BME280;17218;54.070;10.012;2023-05-22T10:07:35;101345.25;;;25.71;58.93
30421;BME280;17218;54.070;10.012;2023-05-22T10:10:06;101359.03;;;26.06;60.32
30421;BME280;17218;54.070;10.012;2023-05-22T10:12:39;101351.00;;;25.93;58.06
30421;BME280;17218;54.070;10.012;2023-05-22T10:15:08;101350.09;;;26.22;58.23
30421;BME280;17218;54.070;10.012;2023-05-22T10:17:36;101342.13;;;26.22;60.05
30421;BME280;17218;54.070;10.012;2023-05-22T10:20:06;101345.56;;;26.24;60.05
30421;BME280;17218;54.070;10.012;2023-05-22T10:22:35;101334.06;;;26.23;60.06
30421;BME280;17218;54.070;10.012;2023-05-22T10:25:03;101336.59;;;26.39;60.96
30421;BME280;17218;54.070;10.012;2023-05-22T10:27:30;101338.53;;;26.50;62.66
30421;BME280;17218;54.070;10.012;2023-05-22T10:30:01;101325.41;;;26.06;59.37
30421;BME280;17218;54.070;10.012;2023-05-22T10:32:35;101327.09;;;26.07;61.64
30421;BME280;17218;54.070;10.012;2023-05-22T10:35:12;101329.09;;;26.04;61.07
30421;BME280;17218;54.070;10.012;2023-05-22T10:37:47;101324.56;;;25.91;61.34
30421;BME280;17218;54.070;10.012;2023-05-22T10:40:18;101321.44;;;25.99;61.56
30421;BME280;17218;54.070;10.012;2023-05-22T10:42:46;101318.34;;;25.92;63.41
30421;BME280;17218;54.070;10.012;2023-05-22T10:45:13;101325.88;;;25.99;62.77
30421;BME280;17218;54.070;10.012;2023-05-22T10:47:39;101317.09;;;25.98;60.94
30421;BME280;17218;54.070;10.012;2023-05-22T10:50:10;101308.47;;;25.94;61.09
30421;BME280;17218;54.070;10.012;2023-05-22T10:52:38;101314.69;;;26.08;62.56
30421;BME280;17218;54.070;10.012;2023-05-22T10:55:05;101304.31;;;25.90;61.66
30421;BME280;17218;54.070;10.012;2023-05-22T10:57:33;101309.09;;;26.13;61.64
30421;BME280;17218;54.070;10.012;2023-05-22T11:00:10;101296.47;;;26.16;63.24
30421;BME280;17218;54.070;10.012;2023-05-22T11:02:41;101304.72;;;26.12;60.30
30421;BME280;17218;54.070;10.012;2023-05-22T11:05:32;101296.06;;;26.50;62.11
30421;BME280;17218;54.070;10.012;2023-05-22T11:08:10;101294.47;;;26.48;58.35
30421;BME280;17218;54.070;10.012;2023-05-22T11:10:52;101295.63;;;26.43;59.63
30421;BME280;17218;54.070;10.012;2023-05-22T11:13:19;101304.47;;;26.57;58.98
30421;BME280;17218;54.070;10.012;2023-05-22T11:15:47;101295.91;;;26.66;59.06
30421;BME280;17218;54.070;10.012;2023-05-22T11:18:13;101298.66;;;26.37;58.31
30421;BME280;17218;54.070;10.012;2023-05-22T11:20:42;101294.75;;;26.15;59.08
30421;BME280;17218;54.070;10.012;2023-05-22T11:23:10;101287.31;;;26.20;60.22
30421;BME280;17218;54.070;10.012;2023-05-22T11:25:37;101293.94;;;26.28;63.14
30421;BME280;17218;54.070;10.012;2023-05-22T11:28:05;101283.25;;;26.29;59.90
30421;BME280;17218;54.070;10.012;2023-05-22T11:30:33;101289.97;;;26.20;61.28
30421;BME280;17218;54.070;10.012;2023-05-22T11:33:00;101281.59;;;26.41;62.25
30421;BME280;17218;54.070;10.012;2023-05-22T11:35:27;101271.03;;;26.80;59.15
30421;BME280;17218;54.070;10.012;2023-05-22T11:37:55;101279.31;;;27.02;58.86
30421;BME280;17218;54.070;10.012;2023-05-22T11:40:23;101276.31;;;27.72;58.17
30421;BME280;17218;54.070;10.012;2023-05-22T11:42:51;101274.41;;;28.48;55.00
30421;BME280;17218;54.070;10.012;2023-05-22T11:45:17;101265.66;;;29.39;52.99
30421;BME280;17218;54.070;10.012;2023-05-22T11:47:44;101258.88;;;30.78;50.07
30421;BME280;17218;54.070;10.012;2023-05-22T11:50:11;101262.00;;;32.07;44.08
30421;BME280;17218;54.070;10.012;2023-05-22T11:52:39;101263.94;;;32.34;41.43
30421;BME280;17218;54.070;10.012;2023-05-22T11:55:09;101255.97;;;33.20;40.19
30421;BME280;17218;54.070;10.012;2023-05-22T11:57:35;101248.16;;;33.27;37.71
30421;BME280;17218;54.070;10.012;2023-05-22T12:00:04;101245.28;;;32.63;37.92
30421;BME280;17218;54.070;10.012;2023-05-22T12:02:32;101243.59;;;33.00;40.26
30421;BME280;17218;54.070;10.012;2023-05-22T12:04:58;101246.31;;;33.28;38.36
30421;BME280;17218;54.070;10.012;2023-05-22T12:07:25;101243.47;;;34.31;35.58
30421;BME280;17218;54.070;10.012;2023-05-22T12:09:54;101241.59;;;34.76;34.54
30421;BME280;17218;54.070;10.012;2023-05-22T12:12:22;101235.25;;;35.29;33.13
30421;BME280;17218;54.070;10.012;2023-05-22T12:14:49;101238.63;;;35.31;32.84
30421;BME280;17218;54.070;10.012;2023-05-22T12:17:16;101241.47;;;35.89;34.61
30421;BME280;17218;54.070;10.012;2023-05-22T12:19:43;101235.09;;;37.21;30.50
30421;BME280;17218;54.070;10.012;2023-05-22T12:22:11;101235.81;;;37.15;29.62
30421;BME280;17218;54.070;10.012;2023-05-22T12:24:39;101235.25;;;37.75;29.61
30421;BME280;17218;54.070;10.012;2023-05-22T12:27:07;101237.63;;;37.22;30.36
30421;BME280;17218;54.070;10.012;2023-05-22T12:29:35;101238.06;;;37.34;30.23
30421;BME280;17218;54.070;10.012;2023-05-22T12:32:03;101238.75;;;35.98;29.91
30421;BME280;17218;54.070;10.012;2023-05-22T12:34:31;101228.97;;;36.05;29.90
30421;BME280;17218;54.070;10.012;2023-05-22T12:36:58;101229.28;;;35.68;31.47
30421;BME280;17218;54.070;10.012;2023-05-22T12:39:24;101230.00;;;34.49;31.41
30421;BME280;17218;54.070;10.012;2023-05-22T12:41:51;101235.44;;;33.29;33.64
30421;BME280;17218;54.070;10.012;2023-05-22T12:44:17;101225.94;;;32.69;35.48